AUA1DE LOWW-LOWL
Flight info
| Callsign | AUA1DE |
|---|---|
| Flight time | 0h 21m |
| Altitude | 16000 |
| Route | SOVIL DCT SITNI SITNI2K |
| Aircraft | E195/M-SDE3GILORVW/S |
Departure
| Time | 2026-04-22 18:11 |
|---|---|
| Airport | Vienna International Airport (LOWW) |
Arrival
| Time | 2026-04-22 18:32 |
|---|---|
| Airport | Linz-Hörsching Airport (LOWL) |
| Time | Latitude | Longitude | Altitude | Speed | Heading |
|---|---|---|---|---|---|
| 2026-04-22 17:44 | 48.11627 | 16.57038 | 601 ft | 0 kts | 27° |
| 2026-04-22 18:02 | 48.11629 | 16.57040 | 601 ft | 1 kts | 27° |
| 2026-04-22 18:02 | 48.11648 | 16.57054 | 601 ft | 5 kts | 27° |
| 2026-04-22 18:02 | 48.11685 | 16.57095 | 601 ft | 8 kts | 56° |
| 2026-04-22 18:03 | 48.11668 | 16.57183 | 601 ft | 11 kts | 121° |
| 2026-04-22 18:03 | 48.11627 | 16.57303 | 604 ft | 14 kts | 116° |
| 2026-04-22 18:03 | 48.11580 | 16.57428 | 606 ft | 14 kts | 134° |
| 2026-04-22 18:03 | 48.11482 | 16.57452 | 605 ft | 15 kts | 198° |
| 2026-04-22 18:04 | 48.11382 | 16.57382 | 621 ft | 17 kts | 206° |
| 2026-04-22 18:04 | 48.11286 | 16.57311 | 617 ft | 15 kts | 206° |
| 2026-04-22 18:04 | 48.11193 | 16.57325 | 611 ft | 17 kts | 122° |
| 2026-04-22 18:04 | 48.11165 | 16.57408 | 603 ft | 1 kts | 116° |
| 2026-04-22 18:05 | 48.11163 | 16.57415 | 602 ft | 1 kts | 116° |
| 2026-04-22 18:05 | 48.11154 | 16.57442 | 602 ft | 5 kts | 116° |
| 2026-04-22 18:05 | 48.11130 | 16.57508 | 602 ft | 9 kts | 127° |
| 2026-04-22 18:05 | 48.11069 | 16.57521 | 603 ft | 11 kts | 205° |
| 2026-04-22 18:06 | 48.11058 | 16.57512 | 603 ft | 0 kts | 206° |
| 2026-04-22 18:09 | 48.11055 | 16.57510 | 603 ft | 1 kts | 206° |
| 2026-04-22 18:09 | 48.11039 | 16.57498 | 615 ft | 5 kts | 206° |
| 2026-04-22 18:10 | 48.10991 | 16.57461 | 604 ft | 11 kts | 208° |
| 2026-04-22 18:10 | 48.10974 | 16.57348 | 611 ft | 13 kts | 294° |
| 2026-04-22 18:10 | 48.11055 | 16.57097 | 608 ft | 54 kts | 295° |
| 2026-04-22 18:10 | 48.11313 | 16.56313 | 600 ft | 114 kts | 296° |
| 2026-04-22 18:11 | 48.11736 | 16.55008 | 718 ft | 153 kts | 296° |
| 2026-04-22 18:11 | 48.12176 | 16.53485 | 1327 ft | 162 kts | 285° |
| 2026-04-22 18:11 | 48.11961 | 16.51859 | 1976 ft | 179 kts | 238° |
| 2026-04-22 18:11 | 48.10926 | 16.50573 | 2304 ft | 205 kts | 221° |
| 2026-04-22 18:12 | 48.10074 | 16.48854 | 2731 ft | 210 kts | 258° |
| 2026-04-22 18:12 | 48.09721 | 16.46771 | 3467 ft | 215 kts | 255° |
| 2026-04-22 18:12 | 48.09307 | 16.45349 | 3753 ft | 232 kts | 248° |
| 2026-04-22 18:12 | 48.08134 | 16.42418 | 4435 ft | 258 kts | 238° |
| 2026-04-22 18:13 | 48.07051 | 16.40188 | 4991 ft | 272 kts | 238° |
| 2026-04-22 18:13 | 48.05924 | 16.37889 | 5716 ft | 276 kts | 237° |
| 2026-04-22 18:13 | 48.04860 | 16.35602 | 6401 ft | 276 kts | 246° |
| 2026-04-22 18:13 | 48.04298 | 16.32858 | 7043 ft | 274 kts | 263° |
| 2026-04-22 18:14 | 48.04016 | 16.30040 | 7663 ft | 275 kts | 268° |
| 2026-04-22 18:14 | 48.03836 | 16.27185 | 8244 ft | 278 kts | 269° |
| 2026-04-22 18:14 | 48.03693 | 16.24289 | 8857 ft | 280 kts | 270° |
| 2026-04-22 18:14 | 48.03566 | 16.21371 | 9424 ft | 284 kts | 270° |
| 2026-04-22 18:15 | 48.03532 | 16.18423 | 10093 ft | 285 kts | 275° |
| 2026-04-22 18:15 | 48.03574 | 16.15368 | 10364 ft | 302 kts | 275° |
| 2026-04-22 18:15 | 48.03627 | 16.12184 | 10764 ft | 311 kts | 275° |
| 2026-04-22 18:15 | 48.03676 | 16.08930 | 11325 ft | 315 kts | 275° |
| 2026-04-22 18:16 | 48.03909 | 16.05676 | 11880 ft | 315 kts | 286° |
| 2026-04-22 18:16 | 48.04440 | 16.02561 | 12457 ft | 317 kts | 289° |
| 2026-04-22 18:16 | 48.04993 | 15.99345 | 13035 ft | 323 kts | 286° |
| 2026-04-22 18:16 | 48.05444 | 15.96027 | 13617 ft | 327 kts | 286° |
| 2026-04-22 18:17 | 48.05905 | 15.92674 | 14176 ft | 331 kts | 285° |
| 2026-04-22 18:17 | 48.06356 | 15.89281 | 14691 ft | 335 kts | 285° |
| 2026-04-22 18:17 | 48.06812 | 15.85850 | 15210 ft | 338 kts | 285° |
| 2026-04-22 18:17 | 48.07268 | 15.82385 | 15712 ft | 340 kts | 285° |
| 2026-04-22 18:18 | 48.07735 | 15.78889 | 16100 ft | 344 kts | 285° |
| 2026-04-22 18:18 | 48.08198 | 15.75400 | 16186 ft | 343 kts | 285° |
| 2026-04-22 18:18 | 48.08662 | 15.71887 | 16234 ft | 345 kts | 285° |
| 2026-04-22 18:18 | 48.09132 | 15.68326 | 16253 ft | 356 kts | 285° |
| 2026-04-22 18:19 | 48.09617 | 15.64646 | 16263 ft | 374 kts | 285° |
| 2026-04-22 18:19 | 48.10129 | 15.60723 | 16260 ft | 382 kts | 285° |
| 2026-04-22 18:19 | 48.10629 | 15.56867 | 16250 ft | 381 kts | 285° |
| 2026-04-22 18:19 | 48.11139 | 15.52978 | 16240 ft | 380 kts | 285° |
| 2026-04-22 18:20 | 48.11645 | 15.49087 | 16233 ft | 380 kts | 285° |
| 2026-04-22 18:20 | 48.12150 | 15.45197 | 16241 ft | 380 kts | 285° |
| 2026-04-22 18:20 | 48.12654 | 15.41306 | 16239 ft | 381 kts | 285° |
| 2026-04-22 18:20 | 48.13130 | 15.37416 | 16244 ft | 382 kts | 281° |
| 2026-04-22 18:21 | 48.13310 | 15.33449 | 16240 ft | 383 kts | 280° |
| 2026-04-22 18:21 | 48.13836 | 15.29567 | 16249 ft | 379 kts | 288° |
| 2026-04-22 18:21 | 48.14524 | 15.25753 | 16253 ft | 379 kts | 289° |
| 2026-04-22 18:21 | 48.15121 | 15.21971 | 15860 ft | 378 kts | 284° |
| 2026-04-22 18:22 | 48.15613 | 15.18122 | 15274 ft | 371 kts | 285° |
| 2026-04-22 18:22 | 48.16096 | 15.14399 | 14923 ft | 359 kts | 284° |
| 2026-04-22 18:22 | 48.16552 | 15.10774 | 14544 ft | 349 kts | 285° |
| 2026-04-22 18:22 | 48.17000 | 15.07233 | 13999 ft | 345 kts | 284° |
| 2026-04-22 18:23 | 48.17442 | 15.03716 | 13411 ft | 341 kts | 284° |
| 2026-04-22 18:23 | 48.17877 | 15.00238 | 12831 ft | 337 kts | 284° |
| 2026-04-22 18:23 | 48.18307 | 14.96806 | 12269 ft | 333 kts | 284° |
| 2026-04-22 18:24 | 48.19145 | 14.90079 | 11304 ft | 321 kts | 284° |
| 2026-04-22 18:24 | 48.19535 | 14.86926 | 11114 ft | 306 kts | 284° |
| 2026-04-22 18:24 | 48.20282 | 14.80928 | 9598 ft | 286 kts | 283° |
| 2026-04-22 18:25 | 48.20639 | 14.78034 | 9088 ft | 280 kts | 283° |
| 2026-04-22 18:25 | 48.20989 | 14.75185 | 8455 ft | 277 kts | 283° |
| 2026-04-22 18:25 | 48.21335 | 14.72364 | 7839 ft | 275 kts | 283° |
| 2026-04-22 18:26 | 48.22018 | 14.66795 | 6654 ft | 269 kts | 283° |
| 2026-04-22 18:26 | 48.22307 | 14.64440 | 6135 ft | 267 kts | 283° |
| 2026-04-22 18:26 | 48.22639 | 14.61703 | 5635 ft | 265 kts | 283° |
| 2026-04-22 18:26 | 48.22968 | 14.58992 | 5261 ft | 264 kts | 283° |
| 2026-04-22 18:27 | 48.23294 | 14.56317 | 4868 ft | 263 kts | 283° |
| 2026-04-22 18:27 | 48.23622 | 14.53630 | 4475 ft | 262 kts | 283° |
| 2026-04-22 18:27 | 48.23974 | 14.50979 | 4085 ft | 259 kts | 290° |
| 2026-04-22 18:27 | 48.24887 | 14.48708 | 3684 ft | 249 kts | 314° |
| 2026-04-22 18:28 | 48.25499 | 14.46439 | 3871 ft | 232 kts | 276° |
| 2026-04-22 18:28 | 48.25194 | 14.44014 | 3481 ft | 249 kts | 252° |
| 2026-04-22 18:28 | 48.24549 | 14.41449 | 3314 ft | 263 kts | 255° |
| 2026-04-22 18:28 | 48.24109 | 14.38863 | 3150 ft | 252 kts | 262° |
| 2026-04-22 18:29 | 48.23942 | 14.36382 | 3153 ft | 220 kts | 269° |
| 2026-04-22 18:29 | 48.23837 | 14.34238 | 3026 ft | 193 kts | 270° |
| 2026-04-22 18:29 | 48.23770 | 14.32343 | 3001 ft | 173 kts | 271° |
| 2026-04-22 18:29 | 48.23719 | 14.30599 | 2757 ft | 160 kts | 272° |
| 2026-04-22 18:30 | 48.23669 | 14.29030 | 2531 ft | 145 kts | 272° |
| 2026-04-22 18:30 | 48.23590 | 14.26145 | 1942 ft | 132 kts | 270° |
| 2026-04-22 18:30 | 48.23542 | 14.24826 | 1697 ft | 126 kts | 268° |
| 2026-04-22 18:31 | 48.23500 | 14.23517 | 1471 ft | 123 kts | 267° |
| 2026-04-22 18:31 | 48.23447 | 14.22229 | 1227 ft | 125 kts | 266° |
| 2026-04-22 18:31 | 48.23397 | 14.20916 | 1053 ft | 123 kts | 266° |
| 2026-04-22 18:31 | 48.23353 | 14.19701 | 983 ft | 104 kts | 266° |
| 2026-04-22 18:32 | 48.23332 | 14.19096 | 976 ft | 69 kts | 267° |
| 2026-04-22 18:32 | 48.23307 | 14.18327 | 988 ft | 50 kts | 266° |
| 2026-04-22 18:32 | 48.23294 | 14.17994 | 983 ft | 22 kts | 268° |
| 2026-04-22 18:32 | 48.23380 | 14.17895 | 980 ft | 20 kts | 13° |
| 2026-04-22 18:33 | 48.23519 | 14.17951 | 983 ft | 21 kts | 15° |
| 2026-04-22 18:33 | 48.23669 | 14.18015 | 985 ft | 23 kts | 21° |
| 2026-04-22 18:33 | 48.23723 | 14.18210 | 980 ft | 21 kts | 88° |
| 2026-04-22 18:33 | 48.23730 | 14.18443 | 978 ft | 23 kts | 86° |
| 2026-04-22 18:34 | 48.23738 | 14.18692 | 977 ft | 25 kts | 87° |
| 2026-04-22 18:34 | 48.23747 | 14.18964 | 976 ft | 27 kts | 87° |
| 2026-04-22 18:34 | 48.23755 | 14.19161 | 983 ft | 19 kts | 88° |
| 2026-04-22 18:34 | 48.23807 | 14.19212 | 977 ft | 10 kts | 0° |
| 2026-04-22 18:35 | 48.23846 | 14.19245 | 976 ft | 6 kts | 75° |
| 2026-04-22 18:35 | 48.23847 | 14.19297 | 972 ft | 9 kts | 87° |
| 2026-04-22 18:35 | 48.23848 | 14.19304 | 972 ft | 0 kts | 87° |